createdAt,value
2022-09-15T00:00:44.788Z,0.00
2022-09-15T00:06:08.326Z,0.00
2022-09-15T00:11:01.245Z,0.00
2022-09-15T00:16:01.346Z,0.00
2022-09-15T00:21:01.138Z,0.00
2022-09-15T00:26:01.059Z,0.00
2022-09-15T00:31:01.032Z,0.00
2022-09-15T00:36:00.958Z,0.00
2022-09-15T00:41:00.857Z,0.00
2022-09-15T00:46:00.862Z,0.00
2022-09-15T00:51:00.705Z,0.00
2022-09-15T00:56:00.666Z,0.00
2022-09-15T01:01:00.807Z,0.00
2022-09-15T01:06:00.570Z,0.00
2022-09-15T01:11:00.467Z,0.00
2022-09-15T01:16:00.499Z,0.00
2022-09-15T01:21:00.311Z,0.00
2022-09-15T01:26:00.264Z,0.00
2022-09-15T01:31:00.183Z,0.00
2022-09-15T01:36:00.112Z,0.00
2022-09-15T01:41:00.057Z,0.00
2022-09-15T01:46:00.021Z,0.00
2022-09-15T01:50:59.917Z,0.00
2022-09-15T01:55:59.879Z,0.00
2022-09-15T02:00:59.797Z,0.00
2022-09-15T02:05:59.718Z,0.00
2022-09-15T02:10:59.662Z,0.00
2022-09-15T02:15:59.633Z,0.00
2022-09-15T02:20:59.545Z,0.00
2022-09-15T02:25:59.473Z,0.00
2022-09-15T02:30:59.397Z,0.00
2022-09-15T02:35:59.402Z,0.00
2022-09-15T02:40:59.323Z,0.00
2022-09-15T02:45:59.256Z,0.00
2022-09-15T02:50:59.127Z,0.00
2022-09-15T02:55:59.079Z,0.00
2022-09-15T03:00:59.029Z,0.00
2022-09-15T03:05:58.911Z,0.00
2022-09-15T03:10:58.891Z,0.00
2022-09-15T03:15:58.795Z,0.00
2022-09-15T03:20:58.757Z,0.00
2022-09-15T03:25:58.640Z,0.00
2022-09-15T03:30:58.592Z,0.00
2022-09-15T03:35:58.517Z,0.00
2022-09-15T03:40:58.503Z,0.00
2022-09-15T03:45:58.431Z,0.00
2022-09-15T03:50:58.356Z,0.00
2022-09-15T03:55:58.287Z,0.00
2022-09-15T04:00:58.231Z,0.00
2022-09-15T04:05:58.191Z,0.00
2022-09-15T04:10:58.058Z,0.00
2022-09-15T04:16:07.551Z,0.00
2022-09-15T04:20:59.944Z,0.00
2022-09-15T04:25:59.901Z,0.00
2022-09-15T04:30:59.895Z,0.00
2022-09-15T04:35:59.757Z,0.00
2022-09-15T04:40:59.696Z,0.00
2022-09-15T04:45:59.698Z,4.00
2022-09-15T04:50:59.553Z,8.00
2022-09-15T04:55:59.497Z,12.00
2022-09-15T05:00:59.447Z,24.00
2022-09-15T05:05:59.421Z,32.00
2022-09-15T05:10:59.338Z,52.00
2022-09-15T05:15:59.674Z,84.00
2022-09-15T05:20:59.153Z,124.00
2022-09-15T05:25:59.158Z,184.00
2022-09-15T05:30:59.114Z,260.00
2022-09-15T05:35:58.969Z,364.00
2022-09-15T05:40:58.997Z,468.00
2022-09-15T05:45:59.010Z,588.00
2022-09-15T05:50:58.767Z,700.00
2022-09-15T05:55:58.770Z,804.00
2022-09-15T06:00:58.611Z,864.00
2022-09-15T06:05:58.587Z,788.00
2022-09-15T06:10:58.483Z,936.00
2022-09-15T06:15:58.614Z,1060.00
2022-09-15T06:20:58.357Z,1240.00
2022-09-15T06:25:58.266Z,1352.00
2022-09-15T06:30:58.263Z,1488.00
2022-09-15T06:35:58.200Z,1668.00
2022-09-15T06:40:58.547Z,1880.00
2022-09-15T06:45:58.086Z,2340.00
2022-09-15T06:50:57.995Z,2540.00
2022-09-15T06:55:57.870Z,2872.00
2022-09-15T07:00:57.928Z,2336.00
2022-09-15T07:05:57.742Z,2060.00
2022-09-15T07:10:57.811Z,2792.00
2022-09-15T07:15:57.646Z,2612.00
2022-09-15T07:20:57.554Z,2432.00
2022-09-15T07:25:57.495Z,2416.00
2022-09-15T07:30:57.441Z,2720.00
2022-09-15T07:35:57.528Z,3404.00
2022-09-15T07:40:57.311Z,3320.00
2022-09-15T07:45:57.303Z,2404.00
2022-09-15T07:50:57.178Z,1764.00
2022-09-15T07:55:57.102Z,996.00
2022-09-15T08:00:57.096Z,916.00
2022-09-15T08:05:56.944Z,1816.00
2022-09-15T08:10:56.899Z,1884.00
2022-09-15T08:15:56.846Z,1268.00
2022-09-15T08:20:56.777Z,2820.00
2022-09-15T08:25:57.113Z,2664.00
2022-09-15T08:30:56.731Z,2628.00
2022-09-15T08:35:56.576Z,1404.00
2022-09-15T08:40:56.503Z,1096.00
2022-09-15T08:45:56.425Z,1572.00
2022-09-15T08:50:56.384Z,1580.00
2022-09-15T08:55:56.307Z,2096.00
2022-09-15T09:00:56.223Z,2628.00
2022-09-15T09:05:56.150Z,6676.00
2022-09-15T09:10:56.088Z,5820.00
2022-09-15T09:15:56.220Z,5096.00
2022-09-15T09:20:55.942Z,5700.00
2022-09-15T09:25:55.874Z,5604.00
2022-09-15T09:30:55.944Z,4144.00
2022-09-15T09:35:55.800Z,5780.00
2022-09-15T09:40:59.839Z,6528.00
2022-09-15T09:45:56.688Z,4860.00
2022-09-15T09:50:55.567Z,4912.00
2022-09-15T09:55:55.671Z,8540.00
2022-09-15T10:00:55.621Z,12544.00
2022-09-15T10:05:55.368Z,9124.00
2022-09-15T10:10:55.310Z,5520.00
2022-09-15T10:15:55.337Z,6052.00
2022-09-15T10:20:55.177Z,2376.00
2022-09-15T10:25:59.510Z,1884.00
2022-09-15T10:30:55.067Z,3204.00
2022-09-15T10:35:54.973Z,2088.00
2022-09-15T10:40:54.925Z,1628.00
2022-09-15T10:45:54.889Z,1324.00
2022-09-15T10:50:54.794Z,1612.00
2022-09-15T10:55:54.709Z,1288.00
2022-09-15T11:00:54.662Z,2252.00
2022-09-15T11:05:54.573Z,2780.00
2022-09-15T11:10:54.558Z,5672.00
2022-09-15T11:15:54.453Z,2780.00
2022-09-15T11:20:54.363Z,1856.00
2022-09-15T11:25:54.318Z,1732.00
2022-09-15T11:30:54.218Z,2776.00
2022-09-15T11:35:54.219Z,4876.00
2022-09-15T11:40:54.134Z,4980.00
2022-09-15T11:45:54.050Z,4084.00
2022-09-15T11:50:54.045Z,4240.00
2022-09-15T11:55:53.913Z,4692.00
2022-09-15T12:00:53.826Z,2628.00
2022-09-15T12:05:53.866Z,3368.00
2022-09-15T12:10:53.733Z,5556.00
2022-09-15T12:15:53.725Z,4128.00
2022-09-15T12:20:53.609Z,2884.00
2022-09-15T12:25:53.525Z,2608.00
2022-09-15T12:30:53.539Z,3064.00
2022-09-15T12:35:53.371Z,2680.00
2022-09-15T12:40:53.298Z,2200.00
2022-09-15T12:45:53.248Z,2488.00
2022-09-15T12:50:53.367Z,3912.00
2022-09-15T12:55:53.126Z,3924.00
2022-09-15T13:01:17.130Z,2740.00
2022-09-15T13:05:53.974Z,1636.00
2022-09-15T13:10:52.917Z,4064.00
2022-09-15T13:15:52.915Z,4100.00
2022-09-15T13:20:53.061Z,4312.00
2022-09-15T13:25:52.718Z,3580.00
2022-09-15T13:30:52.723Z,3072.00
2022-09-15T13:35:52.601Z,2992.00
2022-09-15T13:40:52.562Z,3068.00
2022-09-15T13:45:52.770Z,2832.00
2022-09-15T13:50:52.430Z,2500.00
2022-09-15T13:55:52.326Z,2508.00
2022-09-15T14:00:52.285Z,2272.00
2022-09-15T14:05:52.364Z,2140.00
2022-09-15T14:10:52.111Z,2584.00
2022-09-15T14:15:52.085Z,2520.00
2022-09-15T14:20:51.968Z,2644.00
2022-09-15T14:25:51.962Z,2720.00
2022-09-15T14:30:51.872Z,2512.00
2022-09-15T14:35:51.822Z,2260.00
2022-09-15T14:40:51.729Z,2124.00
2022-09-15T14:45:54.994Z,2024.00
2022-09-15T14:50:52.627Z,1948.00
2022-09-15T14:55:51.515Z,1676.00
2022-09-15T15:00:51.522Z,1260.00
2022-09-15T15:05:58.068Z,1252.00
2022-09-15T15:10:52.413Z,1444.00
2022-09-15T15:15:51.229Z,1512.00
2022-09-15T15:20:51.208Z,1176.00
2022-09-15T15:25:51.305Z,976.00
2022-09-15T15:30:51.179Z,940.00
2022-09-15T15:35:50.981Z,696.00
2022-09-15T15:40:50.907Z,636.00
2022-09-15T15:45:51.136Z,692.00
2022-09-15T15:50:50.856Z,540.00
2022-09-15T15:55:50.872Z,444.00
2022-09-15T16:00:50.721Z,332.00
2022-09-15T16:05:50.596Z,248.00
2022-09-15T16:10:50.526Z,168.00
2022-09-15T16:15:50.541Z,116.00
2022-09-15T16:20:50.387Z,128.00
2022-09-15T16:25:50.332Z,128.00
2022-09-15T16:30:50.298Z,96.00
2022-09-15T16:35:50.197Z,72.00
2022-09-15T16:41:39.106Z,60.00
2022-09-15T16:46:34.928Z,68.00
2022-09-15T16:51:34.818Z,84.00
2022-09-15T16:56:34.745Z,76.00
2022-09-15T17:01:34.750Z,68.00
2022-09-15T17:06:34.661Z,52.00
2022-09-15T17:11:34.574Z,44.00
2022-09-15T17:16:34.521Z,40.00
2022-09-15T17:21:34.429Z,40.00
2022-09-15T17:26:34.359Z,32.00
2022-09-15T17:31:34.363Z,28.00
2022-09-15T17:36:34.239Z,16.00
2022-09-15T17:41:34.279Z,12.00
2022-09-15T17:46:34.107Z,8.00
2022-09-15T17:51:34.069Z,8.00
2022-09-15T17:56:34.432Z,4.00
2022-09-15T18:01:34.792Z,4.00
2022-09-15T18:06:33.857Z,4.00
2022-09-15T18:11:33.792Z,0.00
2022-09-15T18:16:33.722Z,0.00
2022-09-15T18:21:33.633Z,0.00
2022-09-15T18:26:33.572Z,0.00
2022-09-15T18:31:33.575Z,0.00
2022-09-15T18:36:33.437Z,0.00
2022-09-15T18:41:33.374Z,0.00
2022-09-15T18:46:33.331Z,0.00
2022-09-15T18:51:50.429Z,0.00
2022-09-15T18:56:34.191Z,0.00
2022-09-15T19:01:33.181Z,0.00
2022-09-15T19:06:33.050Z,0.00
2022-09-15T19:11:32.993Z,0.00
2022-09-15T19:16:53.696Z,0.00
2022-09-15T19:21:33.854Z,0.00
2022-09-15T19:26:32.791Z,0.00
2022-09-15T19:31:32.754Z,0.00
2022-09-15T19:36:32.638Z,0.00
2022-09-15T19:41:32.595Z,0.00
2022-09-15T19:46:32.508Z,0.00
2022-09-15T19:51:32.429Z,0.00
2022-09-15T19:56:32.435Z,0.00
2022-09-15T20:01:32.362Z,0.00
2022-09-15T20:06:32.885Z,0.00
2022-09-15T20:11:32.205Z,0.00
2022-09-15T20:16:32.121Z,0.00
2022-09-15T20:21:49.267Z,0.00
2022-09-15T20:26:32.997Z,0.00
2022-09-15T20:31:31.937Z,0.00
2022-09-15T20:36:31.909Z,0.00
2022-09-15T20:41:31.796Z,0.00
2022-09-15T20:46:31.739Z,0.00
2022-09-15T20:51:31.726Z,0.00
2022-09-15T20:56:31.563Z,0.00
2022-09-15T21:01:31.625Z,0.00
2022-09-15T21:06:31.463Z,0.00
2022-09-15T21:11:31.396Z,0.00
2022-09-15T21:16:31.326Z,0.00
2022-09-15T21:21:31.268Z,0.00
2022-09-15T21:26:31.193Z,0.00
2022-09-15T21:31:31.142Z,0.00
2022-09-15T21:36:31.072Z,0.00
2022-09-15T21:41:31.030Z,0.00
2022-09-15T21:46:30.945Z,0.00
2022-09-15T21:51:30.924Z,0.00
2022-09-15T21:56:30.764Z,0.00
2022-09-15T22:01:30.764Z,0.00
2022-09-15T22:06:30.692Z,0.00
2022-09-15T22:11:30.597Z,0.00
2022-09-15T22:16:30.613Z,0.00
2022-09-15T22:21:30.490Z,0.00
2022-09-15T22:26:30.399Z,0.00
2022-09-15T22:31:30.437Z,0.00
2022-09-15T22:36:31.764Z,0.00
2022-09-15T22:41:30.258Z,0.00
2022-09-15T22:46:30.127Z,0.00
2022-09-15T22:51:30.067Z,0.00
2022-09-15T22:56:29.980Z,0.00
2022-09-15T23:01:29.927Z,0.00
2022-09-15T23:06:29.859Z,0.00
2022-09-15T23:11:29.813Z,0.00
2022-09-15T23:16:30.433Z,0.00
2022-09-15T23:21:29.662Z,0.00
2022-09-15T23:26:29.625Z,0.00
2022-09-15T23:31:29.574Z,0.00
2022-09-15T23:36:29.597Z,0.00
2022-09-15T23:41:29.386Z,0.00
2022-09-15T23:46:29.368Z,0.00
2022-09-15T23:51:29.278Z,0.00
2022-09-15T23:56:29.178Z,0.00
